sensor_id;sensor_type;location;lat;lon;timestamp;pressure;altitude;pressure_sealevel;temperature;humidity
64352;BME280;50680;52.626;-8.668;2022-08-16T00:01:20;100910.97;;;15.96;100.00
64352;BME280;50680;52.626;-8.668;2022-08-16T00:03:51;100918.09;;;15.96;100.00
64352;BME280;50680;52.626;-8.668;2022-08-16T00:06:20;100926.97;;;15.95;100.00
64352;BME280;50680;52.626;-8.668;2022-08-16T00:08:48;100921.66;;;15.95;100.00
64352;BME280;50680;52.626;-8.668;2022-08-16T00:11:15;100920.84;;;15.94;100.00
64352;BME280;50680;52.626;-8.668;2022-08-16T00:13:44;100926.47;;;15.90;100.00
64352;BME280;50680;52.626;-8.668;2022-08-16T00:16:27;100930.81;;;15.91;100.00
64352;BME280;50680;52.626;-8.668;2022-08-16T00:19:18;100924.81;;;15.89;100.00
64352;BME280;50680;52.626;-8.668;2022-08-16T00:21:50;100927.69;;;15.86;100.00
64352;BME280;50680;52.626;-8.668;2022-08-16T00:24:28;100931.28;;;15.85;100.00
64352;BME280;50680;52.626;-8.668;2022-08-16T00:26:59;100933.22;;;15.83;100.00
64352;BME280;50680;52.626;-8.668;2022-08-16T00:29:26;100929.84;;;15.81;100.00
64352;BME280;50680;52.626;-8.668;2022-08-16T00:31:56;100932.50;;;15.81;100.00
64352;BME280;50680;52.626;-8.668;2022-08-16T00:34:33;100933.72;;;15.76;100.00
64352;BME280;50680;52.626;-8.668;2022-08-16T00:37:19;100931.38;;;15.72;100.00
64352;BME280;50680;52.626;-8.668;2022-08-16T00:39:50;100937.50;;;15.72;100.00
64352;BME280;50680;52.626;-8.668;2022-08-16T00:42:25;100932.44;;;15.69;100.00
64352;BME280;50680;52.626;-8.668;2022-08-16T00:45:04;100930.78;;;15.68;100.00
64352;BME280;50680;52.626;-8.668;2022-08-16T00:47:38;100944.22;;;15.65;100.00
64352;BME280;50680;52.626;-8.668;2022-08-16T00:50:17;100930.63;;;15.58;100.00
64352;BME280;50680;52.626;-8.668;2022-08-16T00:52:46;100944.34;;;15.64;100.00
64352;BME280;50680;52.626;-8.668;2022-08-16T00:55:19;100941.31;;;15.57;100.00
64352;BME280;50680;52.626;-8.668;2022-08-16T00:57:48;100944.72;;;15.59;100.00
64352;BME280;50680;52.626;-8.668;2022-08-16T01:00:29;100937.25;;;15.53;100.00
64352;BME280;50680;52.626;-8.668;2022-08-16T01:02:59;100949.25;;;15.57;100.00
64352;BME280;50680;52.626;-8.668;2022-08-16T01:05:28;100945.91;;;15.55;100.00
64352;BME280;50680;52.626;-8.668;2022-08-16T01:07:58;100949.50;;;15.54;100.00
64352;BME280;50680;52.626;-8.668;2022-08-16T01:10:28;100952.28;;;15.52;100.00
64352;BME280;50680;52.626;-8.668;2022-08-16T01:13:11;100954.31;;;15.49;100.00
64352;BME280;50680;52.626;-8.668;2022-08-16T01:15:46;100941.56;;;15.42;100.00
64352;BME280;50680;52.626;-8.668;2022-08-16T01:18:20;100957.91;;;15.48;100.00
64352;BME280;50680;52.626;-8.668;2022-08-16T01:32:31;100963.03;;;15.38;100.00
64352;BME280;50680;52.626;-8.668;2022-08-16T01:35:26;100969.06;;;15.40;100.00
64352;BME280;50680;52.626;-8.668;2022-08-16T01:38:21;100970.97;;;15.38;100.00
64352;BME280;50680;52.626;-8.668;2022-08-16T01:40:56;100974.56;;;15.37;100.00
64352;BME280;50680;52.626;-8.668;2022-08-16T01:43:28;100969.50;;;15.34;100.00
64352;BME280;50680;52.626;-8.668;2022-08-16T01:45:59;100972.25;;;15.32;100.00
64352;BME280;50680;52.626;-8.668;2022-08-16T01:48:46;100975.75;;;15.33;100.00
64352;BME280;50680;52.626;-8.668;2022-08-16T01:51:15;100974.19;;;15.30;100.00
64352;BME280;50680;52.626;-8.668;2022-08-16T01:53:44;100976.09;;;15.28;100.00
64352;BME280;50680;52.626;-8.668;2022-08-16T01:56:22;100961.53;;;15.22;100.00
64352;BME280;50680;52.626;-8.668;2022-08-16T01:58:55;100976.09;;;15.28;100.00
64352;BME280;50680;52.626;-8.668;2022-08-16T02:01:23;100972.75;;;15.26;100.00
64352;BME280;50680;52.626;-8.668;2022-08-16T02:03:54;100983.44;;;15.25;100.00
64352;BME280;50680;52.626;-8.668;2022-08-16T02:06:35;100982.44;;;15.26;100.00
64352;BME280;50680;52.626;-8.668;2022-08-16T02:09:06;100981.63;;;15.25;100.00
64352;BME280;50680;52.626;-8.668;2022-08-16T02:11:40;100992.19;;;15.25;100.00
64352;BME280;50680;52.626;-8.668;2022-08-16T02:14:15;100985.19;;;15.24;100.00
64352;BME280;50680;52.626;-8.668;2022-08-16T02:16:47;100993.25;;;15.22;100.00
64352;BME280;50680;52.626;-8.668;2022-08-16T02:19:16;100988.94;;;15.21;100.00
64352;BME280;50680;52.626;-8.668;2022-08-16T02:21:50;100995.16;;;15.20;100.00
64352;BME280;50680;52.626;-8.668;2022-08-16T02:24:39;100996.97;;;15.20;100.00
64352;BME280;50680;52.626;-8.668;2022-08-16T02:27:11;100997.91;;;15.19;100.00
64352;BME280;50680;52.626;-8.668;2022-08-16T02:29:40;100996.25;;;15.18;100.00
64352;BME280;50680;52.626;-8.668;2022-08-16T02:32:10;101000.56;;;15.19;100.00
64352;BME280;50680;52.626;-8.668;2022-08-16T02:34:58;101007.03;;;15.15;100.00
64352;BME280;50680;52.626;-8.668;2022-08-16T02:37:25;101002.56;;;15.15;100.00
64352;BME280;50680;52.626;-8.668;2022-08-16T02:40:14;101005.31;;;15.14;100.00
64352;BME280;50680;52.626;-8.668;2022-08-16T02:42:46;101009.78;;;15.13;100.00
64352;BME280;50680;52.626;-8.668;2022-08-16T02:45:16;101007.25;;;15.12;100.00
64352;BME280;50680;52.626;-8.668;2022-08-16T02:47:43;101005.59;;;15.11;100.00
64352;BME280;50680;52.626;-8.668;2022-08-16T02:50:26;101002.19;;;15.09;100.00
64352;BME280;50680;52.626;-8.668;2022-08-16T02:53:13;101017.19;;;15.08;100.00
64352;BME280;50680;52.626;-8.668;2022-08-16T02:55:43;101003.16;;;15.08;100.00
64352;BME280;50680;52.626;-8.668;2022-08-16T02:58:16;101015.63;;;15.06;100.00
64352;BME280;50680;52.626;-8.668;2022-08-16T03:00:43;101013.00;;;15.06;100.00
64352;BME280;50680;52.626;-8.668;2022-08-16T03:03:16;101010.56;;;15.02;100.00
64352;BME280;50680;52.626;-8.668;2022-08-16T03:05:44;101015.13;;;15.00;100.00
64352;BME280;50680;52.626;-8.668;2022-08-16T03:08:18;101027.38;;;15.01;100.00
64352;BME280;50680;52.626;-8.668;2022-08-16T03:11:05;101036.97;;;15.02;100.00
64352;BME280;50680;52.626;-8.668;2022-08-16T03:13:49;101026.63;;;14.99;100.00
64352;BME280;50680;52.626;-8.668;2022-08-16T03:16:20;101029.75;;;14.93;100.00
64352;BME280;50680;52.626;-8.668;2022-08-16T03:19:07;101031.50;;;14.93;100.00
64352;BME280;50680;52.626;-8.668;2022-08-16T03:21:35;101038.38;;;14.95;100.00
64352;BME280;50680;52.626;-8.668;2022-08-16T03:24:07;101048.34;;;14.92;100.00
64352;BME280;50680;52.626;-8.668;2022-08-16T03:26:57;101046.53;;;14.92;100.00
64352;BME280;50680;52.626;-8.668;2022-08-16T03:29:30;101046.63;;;14.91;100.00
64352;BME280;50680;52.626;-8.668;2022-08-16T03:31:59;101051.09;;;14.90;100.00
64352;BME280;50680;52.626;-8.668;2022-08-16T03:34:28;101043.47;;;14.85;100.00
64352;BME280;50680;52.626;-8.668;2022-08-16T03:36:56;101040.31;;;14.80;100.00
64352;BME280;50680;52.626;-8.668;2022-08-16T03:39:24;101048.88;;;14.84;100.00
64352;BME280;50680;52.626;-8.668;2022-08-16T03:41:52;101048.13;;;14.82;100.00
64352;BME280;50680;52.626;-8.668;2022-08-16T03:44:26;101044.78;;;14.80;100.00
64352;BME280;50680;52.626;-8.668;2022-08-16T03:47:14;101050.16;;;14.78;100.00
64352;BME280;50680;52.626;-8.668;2022-08-16T03:49:46;101045.00;;;14.77;100.00
64352;BME280;50680;52.626;-8.668;2022-08-16T03:52:19;101046.91;;;14.75;100.00
64352;BME280;50680;52.626;-8.668;2022-08-16T03:54:49;101040.91;;;14.73;100.00
64352;BME280;50680;52.626;-8.668;2022-08-16T03:57:24;101033.41;;;14.66;100.00
64352;BME280;50680;52.626;-8.668;2022-08-16T04:00:08;101045.41;;;14.71;100.00
64352;BME280;50680;52.626;-8.668;2022-08-16T04:03:00;101043.03;;;14.68;100.00
64352;BME280;50680;52.626;-8.668;2022-08-16T04:05:41;101056.22;;;14.68;100.00
64352;BME280;50680;52.626;-8.668;2022-08-16T04:08:10;101065.06;;;14.66;100.00
64352;BME280;50680;52.626;-8.668;2022-08-16T04:10:51;101060.00;;;14.63;100.00
64352;BME280;50680;52.626;-8.668;2022-08-16T04:13:19;101067.91;;;14.63;100.00
64352;BME280;50680;52.626;-8.668;2022-08-16T04:16:08;101073.19;;;14.63;100.00
64352;BME280;50680;52.626;-8.668;2022-08-16T04:18:54;101073.31;;;14.62;100.00
64352;BME280;50680;52.626;-8.668;2022-08-16T04:21:34;101077.75;;;14.61;100.00
64352;BME280;50680;52.626;-8.668;2022-08-16T04:24:11;101086.63;;;14.60;100.00
64352;BME280;50680;52.626;-8.668;2022-08-16T04:26:38;101091.91;;;14.60;100.00
64352;BME280;50680;52.626;-8.668;2022-08-16T04:29:12;101081.47;;;14.59;100.00
64352;BME280;50680;52.626;-8.668;2022-08-16T04:31:50;101079.09;;;14.54;100.00
64352;BME280;50680;52.626;-8.668;2022-08-16T04:34:29;101095.66;;;14.56;100.00
64352;BME280;50680;52.626;-8.668;2022-08-16T04:36:59;101098.75;;;14.50;100.00
64352;BME280;50680;52.626;-8.668;2022-08-16T04:39:29;101094.31;;;14.51;100.00
64352;BME280;50680;52.626;-8.668;2022-08-16T04:42:17;101097.88;;;14.49;100.00
64352;BME280;50680;52.626;-8.668;2022-08-16T04:44:54;101097.06;;;14.49;100.00
64352;BME280;50680;52.626;-8.668;2022-08-16T04:47:28;101087.69;;;14.45;100.00
64352;BME280;50680;52.626;-8.668;2022-08-16T04:50:13;101095.50;;;14.46;100.00
64352;BME280;50680;52.626;-8.668;2022-08-16T04:52:45;101101.59;;;14.47;100.00
64352;BME280;50680;52.626;-8.668;2022-08-16T04:55:18;101098.44;;;14.42;100.00
64352;BME280;50680;52.626;-8.668;2022-08-16T04:57:47;101105.19;;;14.46;100.00
64352;BME280;50680;52.626;-8.668;2022-08-16T05:00:26;101107.91;;;14.44;100.00
64352;BME280;50680;52.626;-8.668;2022-08-16T05:03:05;101111.63;;;14.42;100.00
64352;BME280;50680;52.626;-8.668;2022-08-16T05:05:35;101114.38;;;14.40;100.00
64352;BME280;50680;52.626;-8.668;2022-08-16T05:08:23;101121.44;;;14.40;100.00
64352;BME280;50680;52.626;-8.668;2022-08-16T05:11:00;101116.16;;;14.40;100.00
64352;BME280;50680;52.626;-8.668;2022-08-16T05:13:31;101131.38;;;14.36;100.00
64352;BME280;50680;52.626;-8.668;2022-08-16T05:16:29;101129.56;;;14.37;100.00
64352;BME280;50680;52.626;-8.668;2022-08-16T05:18:57;101135.78;;;14.36;100.00
64352;BME280;50680;52.626;-8.668;2022-08-16T05:21:26;101119.97;;;14.23;100.00
64352;BME280;50680;52.626;-8.668;2022-08-16T05:24:05;101129.25;;;14.28;100.00
64352;BME280;50680;52.626;-8.668;2022-08-16T05:26:34;101144.03;;;14.31;100.00
64352;BME280;50680;52.626;-8.668;2022-08-16T05:29:09;101150.53;;;14.25;100.00
64352;BME280;50680;52.626;-8.668;2022-08-16T05:31:40;101148.22;;;14.21;100.00
64352;BME280;50680;52.626;-8.668;2022-08-16T05:34:14;101157.09;;;14.20;100.00
64352;BME280;50680;52.626;-8.668;2022-08-16T05:36:46;101158.78;;;14.21;100.00
64352;BME280;50680;52.626;-8.668;2022-08-16T05:39:16;101159.28;;;14.13;100.00
64352;BME280;50680;52.626;-8.668;2022-08-16T05:41:46;101165.53;;;14.12;100.00
64352;BME280;50680;52.626;-8.668;2022-08-16T05:44:15;101164.66;;;14.11;100.00
64352;BME280;50680;52.626;-8.668;2022-08-16T05:46:51;101164.03;;;14.08;100.00
64352;BME280;50680;52.626;-8.668;2022-08-16T05:49:20;101179.84;;;14.08;100.00
64352;BME280;50680;52.626;-8.668;2022-08-16T05:51:49;101174.03;;;14.03;100.00
64352;BME280;50680;52.626;-8.668;2022-08-16T05:54:16;101181.19;;;14.01;100.00
64352;BME280;50680;52.626;-8.668;2022-08-16T05:56:52;101190.81;;;14.02;100.00
64352;BME280;50680;52.626;-8.668;2022-08-16T05:59:21;101189.31;;;13.98;100.00
64352;BME280;50680;52.626;-8.668;2022-08-16T06:01:49;101174.75;;;13.92;100.00
64352;BME280;50680;52.626;-8.668;2022-08-16T06:04:18;101184.91;;;13.98;100.00
64352;BME280;50680;52.626;-8.668;2022-08-16T06:07:02;101189.41;;;13.96;100.00
64352;BME280;50680;52.626;-8.668;2022-08-16T06:09:35;101186.91;;;13.95;100.00
64352;BME280;50680;52.626;-8.668;2022-08-16T06:12:11;101186.22;;;13.91;100.00
64352;BME280;50680;52.626;-8.668;2022-08-16T06:15:01;101183.50;;;13.92;100.00
64352;BME280;50680;52.626;-8.668;2022-08-16T06:17:34;101191.09;;;13.97;100.00
64352;BME280;50680;52.626;-8.668;2022-08-16T06:20:20;101181.72;;;13.93;100.00
64352;BME280;50680;52.626;-8.668;2022-08-16T06:22:51;101190.16;;;13.98;100.00
64352;BME280;50680;52.626;-8.668;2022-08-16T06:25:30;101199.84;;;13.98;100.00
64352;BME280;50680;52.626;-8.668;2022-08-16T06:28:05;101185.19;;;13.94;100.00
64352;BME280;50680;52.626;-8.668;2022-08-16T06:30:36;101194.56;;;13.98;100.00
64352;BME280;50680;52.626;-8.668;2022-08-16T06:33:12;101204.94;;;14.01;100.00
64352;BME280;50680;52.626;-8.668;2022-08-16T06:35:48;101203.22;;;14.00;100.00
64352;BME280;50680;52.626;-8.668;2022-08-16T06:38:21;101208.91;;;13.94;100.00
64352;BME280;50680;52.626;-8.668;2022-08-16T06:41:03;101207.84;;;13.96;100.00
64352;BME280;50680;52.626;-8.668;2022-08-16T06:43:31;101207.03;;;13.96;100.00
64352;BME280;50680;52.626;-8.668;2022-08-16T06:46:00;101210.41;;;13.98;100.00
64352;BME280;50680;52.626;-8.668;2022-08-16T06:48:31;101207.03;;;13.96;100.00
64352;BME280;50680;52.626;-8.668;2022-08-16T06:51:05;101213.03;;;13.98;100.00
64352;BME280;50680;52.626;-8.668;2022-08-16T06:53:33;101215.47;;;14.01;100.00
64352;BME280;50680;52.626;-8.668;2022-08-16T06:56:05;101204.94;;;14.01;100.00
64352;BME280;50680;52.626;-8.668;2022-08-16T06:58:50;101213.69;;;14.01;100.00
64352;BME280;50680;52.626;-8.668;2022-08-16T07:01:18;101208.31;;;14.03;100.00
64352;BME280;50680;52.626;-8.668;2022-08-16T07:04:05;101208.84;;;14.08;100.00
64352;BME280;50680;52.626;-8.668;2022-08-16T07:06:38;101211.56;;;14.06;100.00
64352;BME280;50680;52.626;-8.668;2022-08-16T07:09:09;101214.84;;;14.10;100.00
64352;BME280;50680;52.626;-8.668;2022-08-16T07:11:36;101220.81;;;14.14;100.00
64352;BME280;50680;52.626;-8.668;2022-08-16T07:14:14;101214.28;;;14.19;100.00
64352;BME280;50680;52.626;-8.668;2022-08-16T07:16:53;101220.19;;;14.23;100.00
64352;BME280;50680;52.626;-8.668;2022-08-16T07:19:24;101222.38;;;14.29;100.00
64352;BME280;50680;52.626;-8.668;2022-08-16T07:22:12;101216.81;;;14.34;100.00
64352;BME280;50680;52.626;-8.668;2022-08-16T07:24:59;101224.34;;;14.40;100.00
64352;BME280;50680;52.626;-8.668;2022-08-16T07:27:27;101218.72;;;14.44;100.00
64352;BME280;50680;52.626;-8.668;2022-08-16T07:29:59;101222.97;;;14.47;100.00
64352;BME280;50680;52.626;-8.668;2022-08-16T07:32:26;101214.09;;;14.48;100.00
64352;BME280;50680;52.626;-8.668;2022-08-16T07:34:57;101225.34;;;14.64;100.00
64352;BME280;50680;52.626;-8.668;2022-08-16T07:37:24;101228.28;;;14.73;100.00
64352;BME280;50680;52.626;-8.668;2022-08-16T07:39:51;101245.69;;;14.75;100.00
64352;BME280;50680;52.626;-8.668;2022-08-16T07:42:20;101241.59;;;14.84;100.00
64352;BME280;50680;52.626;-8.668;2022-08-16T07:45:01;101239.69;;;14.86;100.00
64352;BME280;50680;52.626;-8.668;2022-08-16T07:47:33;101241.38;;;14.87;100.00
64352;BME280;50680;52.626;-8.668;2022-08-16T07:50:02;101254.38;;;14.90;100.00
64352;BME280;50680;52.626;-8.668;2022-08-16T07:52:31;101251.53;;;14.93;100.00
64352;BME280;50680;52.626;-8.668;2022-08-16T07:54:58;101259.84;;;14.87;100.00
64352;BME280;50680;52.626;-8.668;2022-08-16T07:57:25;101251.72;;;14.90;100.00
64352;BME280;50680;52.626;-8.668;2022-08-16T07:59:52;101256.81;;;14.93;100.00
64352;BME280;50680;52.626;-8.668;2022-08-16T08:02:23;101272.84;;;14.90;100.00
64352;BME280;50680;52.626;-8.668;2022-08-16T08:04:54;101271.78;;;14.93;100.00
64352;BME280;50680;52.626;-8.668;2022-08-16T08:07:23;101274.53;;;14.91;100.00
64352;BME280;50680;52.626;-8.668;2022-08-16T08:09:54;101280.78;;;14.90;100.00
64352;BME280;50680;52.626;-8.668;2022-08-16T08:12:22;101277.16;;;14.91;100.00
64352;BME280;50680;52.626;-8.668;2022-08-16T08:15:02;101291.13;;;14.93;100.00
64352;BME280;50680;52.626;-8.668;2022-08-16T08:17:29;101288.50;;;14.93;100.00
64352;BME280;50680;52.626;-8.668;2022-08-16T08:20:12;101285.09;;;14.91;100.00
64352;BME280;50680;52.626;-8.668;2022-08-16T08:22:53;101293.78;;;14.93;100.00
64352;BME280;50680;52.626;-8.668;2022-08-16T08:25:28;101289.97;;;14.97;100.00
64352;BME280;50680;52.626;-8.668;2022-08-16T08:28:16;101289.41;;;15.05;100.00
64352;BME280;50680;52.626;-8.668;2022-08-16T08:30:45;101293.75;;;15.19;100.00
64352;BME280;50680;52.626;-8.668;2022-08-16T08:33:27;101297.34;;;15.31;100.00
64352;BME280;50680;52.626;-8.668;2022-08-16T08:35:56;101291.72;;;15.35;100.00
64352;BME280;50680;52.626;-8.668;2022-08-16T08:38:27;101284.22;;;15.42;100.00
64352;BME280;50680;52.626;-8.668;2022-08-16T08:41:11;101295.28;;;15.60;100.00
64352;BME280;50680;52.626;-8.668;2022-08-16T08:43:38;101294.22;;;15.75;100.00
64352;BME280;50680;52.626;-8.668;2022-08-16T08:46:07;101300.22;;;15.90;100.00
64352;BME280;50680;52.626;-8.668;2022-08-16T08:48:47;101295.06;;;16.00;100.00
64352;BME280;50680;52.626;-8.668;2022-08-16T08:51:28;101296.66;;;16.27;100.00
64352;BME280;50680;52.626;-8.668;2022-08-16T08:54:06;101296.38;;;16.54;100.00
64352;BME280;50680;52.626;-8.668;2022-08-16T08:56:35;101293.31;;;16.71;100.00
64352;BME280;50680;52.626;-8.668;2022-08-16T08:59:12;101303.56;;;16.41;100.00
64352;BME280;50680;52.626;-8.668;2022-08-16T09:01:46;101303.63;;;16.28;100.00
64352;BME280;50680;52.626;-8.668;2022-08-16T09:04:23;101289.94;;;16.34;100.00
64352;BME280;50680;52.626;-8.668;2022-08-16T09:06:52;101301.69;;;16.30;100.00
64352;BME280;50680;52.626;-8.668;2022-08-16T09:09:20;101301.94;;;16.27;100.00
64352;BME280;50680;52.626;-8.668;2022-08-16T09:11:48;101306.53;;;16.25;100.00
64352;BME280;50680;52.626;-8.668;2022-08-16T09:14:33;101306.25;;;16.52;100.00
64352;BME280;50680;52.626;-8.668;2022-08-16T09:17:00;101308.56;;;16.57;100.00
64352;BME280;50680;52.626;-8.668;2022-08-16T09:19:47;101304.75;;;16.83;100.00
64352;BME280;50680;52.626;-8.668;2022-08-16T09:22:22;101296.44;;;17.46;100.00
64352;BME280;50680;52.626;-8.668;2022-08-16T09:24:50;101297.56;;;17.98;100.00
64352;BME280;50680;52.626;-8.668;2022-08-16T09:27:25;101294.28;;;18.38;90.98
64352;BME280;50680;52.626;-8.668;2022-08-16T09:30:14;101294.81;;;18.74;87.14
64352;BME280;50680;52.626;-8.668;2022-08-16T09:33:02;101298.06;;;19.30;87.19
64352;BME280;50680;52.626;-8.668;2022-08-16T09:35:33;101304.59;;;19.57;82.70
64352;BME280;50680;52.626;-8.668;2022-08-16T09:38:04;101291.69;;;20.02;80.37
64352;BME280;50680;52.626;-8.668;2022-08-16T09:40:35;101296.41;;;19.79;76.78
64352;BME280;50680;52.626;-8.668;2022-08-16T09:43:11;101301.75;;;18.87;80.46
64352;BME280;50680;52.626;-8.668;2022-08-16T09:45:59;101296.44;;;18.66;80.80
64352;BME280;50680;52.626;-8.668;2022-08-16T09:48:26;101304.19;;;19.00;81.28
64352;BME280;50680;52.626;-8.668;2022-08-16T09:51:14;101301.34;;;19.12;77.95
64352;BME280;50680;52.626;-8.668;2022-08-16T09:53:43;101293.38;;;19.12;77.64
64352;BME280;50680;52.626;-8.668;2022-08-16T09:56:30;101298.81;;;19.42;79.29
64352;BME280;50680;52.626;-8.668;2022-08-16T09:59:00;101298.47;;;19.66;80.56
64352;BME280;50680;52.626;-8.668;2022-08-16T10:01:32;101303.47;;;20.48;79.69
64352;BME280;50680;52.626;-8.668;2022-08-16T10:04:00;101300.84;;;21.06;74.21
64352;BME280;50680;52.626;-8.668;2022-08-16T10:06:32;101296.19;;;20.70;65.46
64352;BME280;50680;52.626;-8.668;2022-08-16T10:09:05;101293.22;;;20.24;64.75
64352;BME280;50680;52.626;-8.668;2022-08-16T10:11:36;101303.44;;;19.49;68.16
64352;BME280;50680;52.626;-8.668;2022-08-16T10:14:37;101308.31;;;19.13;68.07
64352;BME280;50680;52.626;-8.668;2022-08-16T10:17:11;101302.84;;;18.84;69.29
64352;BME280;50680;52.626;-8.668;2022-08-16T10:19:40;101313.78;;;18.70;70.76
64352;BME280;50680;52.626;-8.668;2022-08-16T10:22:08;101315.50;;;18.38;71.76
64352;BME280;50680;52.626;-8.668;2022-08-16T10:24:39;101315.88;;;18.34;71.47
64352;BME280;50680;52.626;-8.668;2022-08-16T10:27:25;101306.22;;;18.12;72.44
64352;BME280;50680;52.626;-8.668;2022-08-16T10:30:13;101309.50;;;17.81;74.37
64352;BME280;50680;52.626;-8.668;2022-08-16T10:32:51;101313.03;;;17.59;73.97
64352;BME280;50680;52.626;-8.668;2022-08-16T10:35:19;101318.28;;;18.04;72.72
64352;BME280;50680;52.626;-8.668;2022-08-16T10:37:48;101312.53;;;18.53;70.27
64352;BME280;50680;52.626;-8.668;2022-08-16T10:40:19;101316.84;;;19.07;64.41
64352;BME280;50680;52.626;-8.668;2022-08-16T10:42:57;101309.47;;;19.51;60.21
64352;BME280;50680;52.626;-8.668;2022-08-16T10:45:31;101312.69;;;19.96;60.85
64352;BME280;50680;52.626;-8.668;2022-08-16T10:48:04;101308.38;;;20.34;58.08
64352;BME280;50680;52.626;-8.668;2022-08-16T10:50:52;101311.88;;;20.05;59.52
64352;BME280;50680;52.626;-8.668;2022-08-16T10:53:29;101319.44;;;20.09;57.83
64352;BME280;50680;52.626;-8.668;2022-08-16T10:56:05;101317.47;;;20.31;55.69
64352;BME280;50680;52.626;-8.668;2022-08-16T10:58:54;101326.47;;;20.30;52.49
64352;BME280;50680;52.626;-8.668;2022-08-16T11:01:43;101334.91;;;20.64;50.25
64352;BME280;50680;52.626;-8.668;2022-08-16T11:04:30;101333.16;;;20.24;50.04
64352;BME280;50680;52.626;-8.668;2022-08-16T11:07:17;101325.88;;;19.97;53.91
64352;BME280;50680;52.626;-8.668;2022-08-16T11:10:05;101325.16;;;20.05;55.34
64352;BME280;50680;52.626;-8.668;2022-08-16T11:12:53;101331.78;;;20.30;55.65
64352;BME280;50680;52.626;-8.668;2022-08-16T11:15:20;101334.81;;;19.86;52.96
64352;BME280;50680;52.626;-8.668;2022-08-16T11:17:51;101343.13;;;19.72;50.96
64352;BME280;50680;52.626;-8.668;2022-08-16T11:20:40;101343.91;;;19.43;52.91
64352;BME280;50680;52.626;-8.668;2022-08-16T11:23:14;101344.50;;;19.26;51.23
64352;BME280;50680;52.626;-8.668;2022-08-16T11:25:42;101338.31;;;19.15;52.08
64352;BME280;50680;52.626;-8.668;2022-08-16T11:28:30;101351.31;;;19.19;52.46
64352;BME280;50680;52.626;-8.668;2022-08-16T11:31:17;101350.47;;;19.18;53.12
64352;BME280;50680;52.626;-8.668;2022-08-16T11:33:44;101345.44;;;19.46;53.51
64352;BME280;50680;52.626;-8.668;2022-08-16T11:36:18;101335.94;;;19.84;52.38
64352;BME280;50680;52.626;-8.668;2022-08-16T11:38:55;101331.53;;;19.73;53.08
64352;BME280;50680;52.626;-8.668;2022-08-16T11:41:25;101335.97;;;19.94;52.43
64352;BME280;50680;52.626;-8.668;2022-08-16T11:43:57;101331.88;;;19.89;51.88
64352;BME280;50680;52.626;-8.668;2022-08-16T11:46:24;101339.06;;;20.18;52.75
64352;BME280;50680;52.626;-8.668;2022-08-16T11:49:11;101340.06;;;20.27;51.21
64352;BME280;50680;52.626;-8.668;2022-08-16T11:51:40;101342.28;;;20.41;50.35
64352;BME280;50680;52.626;-8.668;2022-08-16T11:54:11;101344.84;;;20.62;50.39
64352;BME280;50680;52.626;-8.668;2022-08-16T11:56:49;101346.38;;;20.36;48.15
64352;BME280;50680;52.626;-8.668;2022-08-16T11:59:23;101350.13;;;20.04;49.23
64352;BME280;50680;52.626;-8.668;2022-08-16T12:01:57;101351.53;;;19.67;50.08
64352;BME280;50680;52.626;-8.668;2022-08-16T12:04:25;101345.63;;;19.54;51.40
64352;BME280;50680;52.626;-8.668;2022-08-16T12:06:52;101335.09;;;19.83;49.46
64352;BME280;50680;52.626;-8.668;2022-08-16T12:09:21;101337.09;;;20.20;49.13
64352;BME280;50680;52.626;-8.668;2022-08-16T12:11:55;101347.59;;;20.12;50.52
64352;BME280;50680;52.626;-8.668;2022-08-16T12:14:22;101337.06;;;19.81;50.32
64352;BME280;50680;52.626;-8.668;2022-08-16T12:16:51;101350.63;;;19.47;51.54
64352;BME280;50680;52.626;-8.668;2022-08-16T12:19:23;101351.38;;;19.28;52.03
64352;BME280;50680;52.626;-8.668;2022-08-16T12:22:02;101346.31;;;19.56;51.63
64352;BME280;50680;52.626;-8.668;2022-08-16T12:24:46;101349.16;;;20.24;47.80
64352;BME280;50680;52.626;-8.668;2022-08-16T12:27:20;101349.44;;;20.31;47.19
64352;BME280;50680;52.626;-8.668;2022-08-16T12:29:50;101361.31;;;19.67;51.42
64352;BME280;50680;52.626;-8.668;2022-08-16T12:32:18;101376.00;;;19.30;53.83
64352;BME280;50680;52.626;-8.668;2022-08-16T12:35:04;101370.31;;;18.93;57.36
64352;BME280;50680;52.626;-8.668;2022-08-16T12:37:33;101373.59;;;18.64;59.21
64352;BME280;50680;52.626;-8.668;2022-08-16T12:40:00;101373.91;;;18.50;61.30
64352;BME280;50680;52.626;-8.668;2022-08-16T12:42:28;101361.88;;;18.34;61.45
64352;BME280;50680;52.626;-8.668;2022-08-16T12:45:08;101368.19;;;18.54;61.83
64352;BME280;50680;52.626;-8.668;2022-08-16T12:47:36;101374.50;;;18.74;60.83
64352;BME280;50680;52.626;-8.668;2022-08-16T12:50:42;101371.63;;;19.20;59.38
64352;BME280;50680;52.626;-8.668;2022-08-16T12:53:16;101371.53;;;19.31;58.41
64352;BME280;50680;52.626;-8.668;2022-08-16T12:55:43;101377.84;;;19.30;55.49
64352;BME280;50680;52.626;-8.668;2022-08-16T12:58:10;101371.94;;;19.26;53.52
64352;BME280;50680;52.626;-8.668;2022-08-16T13:00:58;101375.06;;;19.41;55.09
64352;BME280;50680;52.626;-8.668;2022-08-16T13:03:27;101374.88;;;19.64;54.31
64352;BME280;50680;52.626;-8.668;2022-08-16T13:05:58;101366.06;;;19.63;54.02
64352;BME280;50680;52.626;-8.668;2022-08-16T13:08:26;101378.59;;;19.72;53.87
64352;BME280;50680;52.626;-8.668;2022-08-16T13:10:56;101373.66;;;19.68;54.44
64352;BME280;50680;52.626;-8.668;2022-08-16T13:13:25;101383.88;;;19.63;54.22
64352;BME280;50680;52.626;-8.668;2022-08-16T13:15:57;101385.13;;;19.68;54.63
64352;BME280;50680;52.626;-8.668;2022-08-16T13:18:30;101390.41;;;19.59;54.48
64352;BME280;50680;52.626;-8.668;2022-08-16T13:21:05;101389.38;;;19.71;53.28
64352;BME280;50680;52.626;-8.668;2022-08-16T13:23:34;101375.16;;;19.91;53.01